sensor_id;sensor_type;location;lat;lon;timestamp;P1;durP1;ratioP1;P2;durP2;ratioP2
4290;SDS011;2159;50.906;7.152;2023-06-24T00:00:50;8.53;;;6.40;;
4290;SDS011;2159;50.906;7.152;2023-06-24T00:03:18;6.20;;;5.60;;
4290;SDS011;2159;50.906;7.152;2023-06-24T00:05:46;5.87;;;5.37;;
4290;SDS011;2159;50.906;7.152;2023-06-24T00:08:15;7.80;;;6.00;;
4290;SDS011;2159;50.906;7.152;2023-06-24T00:10:45;7.97;;;5.83;;
4290;SDS011;2159;50.906;7.152;2023-06-24T00:13:13;7.07;;;5.40;;
4290;SDS011;2159;50.906;7.152;2023-06-24T00:15:42;9.03;;;5.80;;
4290;SDS011;2159;50.906;7.152;2023-06-24T00:18:10;7.30;;;5.60;;
4290;SDS011;2159;50.906;7.152;2023-06-24T00:20:37;6.33;;;5.73;;
4290;SDS011;2159;50.906;7.152;2023-06-24T00:23:08;6.00;;;5.50;;
4290;SDS011;2159;50.906;7.152;2023-06-24T00:25:35;6.73;;;5.90;;
4290;SDS011;2159;50.906;7.152;2023-06-24T00:28:03;9.07;;;5.77;;
4290;SDS011;2159;50.906;7.152;2023-06-24T00:30:31;5.90;;;5.20;;
4290;SDS011;2159;50.906;7.152;2023-06-24T00:33:00;6.77;;;5.87;;
4290;SDS011;2159;50.906;7.152;2023-06-24T00:35:29;6.80;;;5.90;;
4290;SDS011;2159;50.906;7.152;2023-06-24T00:37:56;6.23;;;5.30;;
4290;SDS011;2159;50.906;7.152;2023-06-24T00:40:24;8.40;;;6.03;;
4290;SDS011;2159;50.906;7.152;2023-06-24T00:42:52;6.70;;;5.57;;
4290;SDS011;2159;50.906;7.152;2023-06-24T00:45:20;6.03;;;5.43;;
4290;SDS011;2159;50.906;7.152;2023-06-24T00:47:48;7.50;;;5.73;;
4290;SDS011;2159;50.906;7.152;2023-06-24T00:50:17;6.87;;;5.73;;
4290;SDS011;2159;50.906;7.152;2023-06-24T00:52:44;8.03;;;6.00;;
4290;SDS011;2159;50.906;7.152;2023-06-24T00:55:12;6.57;;;5.87;;
4290;SDS011;2159;50.906;7.152;2023-06-24T00:57:41;6.97;;;5.60;;
4290;SDS011;2159;50.906;7.152;2023-06-24T01:00:10;6.10;;;5.50;;
4290;SDS011;2159;50.906;7.152;2023-06-24T01:02:40;8.83;;;5.90;;
4290;SDS011;2159;50.906;7.152;2023-06-24T01:05:09;8.17;;;5.73;;
4290;SDS011;2159;50.906;7.152;2023-06-24T01:07:39;7.63;;;6.00;;
4290;SDS011;2159;50.906;7.152;2023-06-24T01:10:11;7.10;;;5.90;;
4290;SDS011;2159;50.906;7.152;2023-06-24T01:12:45;6.67;;;6.07;;
4290;SDS011;2159;50.906;7.152;2023-06-24T01:15:12;6.60;;;6.00;;
4290;SDS011;2159;50.906;7.152;2023-06-24T01:17:42;7.83;;;6.00;;
4290;SDS011;2159;50.906;7.152;2023-06-24T01:20:11;6.23;;;5.60;;
4290;SDS011;2159;50.906;7.152;2023-06-24T01:22:55;6.47;;;5.83;;
4290;SDS011;2159;50.906;7.152;2023-06-24T01:25:33;5.97;;;5.40;;
4290;SDS011;2159;50.906;7.152;2023-06-24T01:28:13;6.60;;;5.87;;
4290;SDS011;2159;50.906;7.152;2023-06-24T01:30:53;5.83;;;5.33;;
4290;SDS011;2159;50.906;7.152;2023-06-24T01:33:24;5.67;;;5.20;;
4290;SDS011;2159;50.906;7.152;2023-06-24T01:35:54;7.97;;;6.03;;
4290;SDS011;2159;50.906;7.152;2023-06-24T01:38:22;6.60;;;6.00;;
4290;SDS011;2159;50.906;7.152;2023-06-24T01:40:51;6.43;;;5.70;;
4290;SDS011;2159;50.906;7.152;2023-06-24T01:43:19;7.37;;;6.07;;
4290;SDS011;2159;50.906;7.152;2023-06-24T01:45:51;8.23;;;5.87;;
4290;SDS011;2159;50.906;7.152;2023-06-24T01:48:21;6.30;;;5.70;;
4290;SDS011;2159;50.906;7.152;2023-06-24T01:50:53;9.80;;;6.40;;
4290;SDS011;2159;50.906;7.152;2023-06-24T01:53:22;8.37;;;6.37;;
4290;SDS011;2159;50.906;7.152;2023-06-24T01:55:50;6.30;;;5.50;;
4290;SDS011;2159;50.906;7.152;2023-06-24T01:58:19;7.13;;;6.37;;
4290;SDS011;2159;50.906;7.152;2023-06-24T02:00:48;7.87;;;5.90;;
4290;SDS011;2159;50.906;7.152;2023-06-24T02:03:17;6.20;;;5.67;;
4290;SDS011;2159;50.906;7.152;2023-06-24T02:05:46;6.90;;;5.30;;
4290;SDS011;2159;50.906;7.152;2023-06-24T02:08:15;6.33;;;5.73;;
4290;SDS011;2159;50.906;7.152;2023-06-24T02:10:44;7.23;;;6.30;;
4290;SDS011;2159;50.906;7.152;2023-06-24T02:13:12;6.87;;;5.70;;
4290;SDS011;2159;50.906;7.152;2023-06-24T02:15:40;6.30;;;5.70;;
4290;SDS011;2159;50.906;7.152;2023-06-24T02:18:08;9.53;;;5.93;;
4290;SDS011;2159;50.906;7.152;2023-06-24T02:20:37;7.43;;;5.90;;
4290;SDS011;2159;50.906;7.152;2023-06-24T02:23:06;9.33;;;6.33;;
4290;SDS011;2159;50.906;7.152;2023-06-24T02:25:35;8.17;;;5.80;;
4290;SDS011;2159;50.906;7.152;2023-06-24T02:28:05;13.23;;;6.27;;
4290;SDS011;2159;50.906;7.152;2023-06-24T02:30:34;6.43;;;5.87;;
4290;SDS011;2159;50.906;7.152;2023-06-24T02:33:03;7.27;;;5.60;;
4290;SDS011;2159;50.906;7.152;2023-06-24T02:35:30;7.50;;;5.93;;
4290;SDS011;2159;50.906;7.152;2023-06-24T02:37:58;6.37;;;5.77;;
4290;SDS011;2159;50.906;7.152;2023-06-24T02:40:26;8.20;;;6.20;;
4290;SDS011;2159;50.906;7.152;2023-06-24T02:42:56;8.20;;;6.40;;
4290;SDS011;2159;50.906;7.152;2023-06-24T02:45:24;7.03;;;5.80;;
4290;SDS011;2159;50.906;7.152;2023-06-24T02:47:52;7.07;;;5.83;;
4290;SDS011;2159;50.906;7.152;2023-06-24T02:50:19;7.80;;;5.93;;
4290;SDS011;2159;50.906;7.152;2023-06-24T02:52:48;6.77;;;6.17;;
4290;SDS011;2159;50.906;7.152;2023-06-24T02:55:16;6.33;;;5.73;;
4290;SDS011;2159;50.906;7.152;2023-06-24T02:57:43;7.80;;;6.33;;
4290;SDS011;2159;50.906;7.152;2023-06-24T03:00:14;8.73;;;5.77;;
4290;SDS011;2159;50.906;7.152;2023-06-24T03:02:43;7.03;;;5.67;;
4290;SDS011;2159;50.906;7.152;2023-06-24T03:05:11;6.67;;;5.97;;
4290;SDS011;2159;50.906;7.152;2023-06-24T03:07:38;6.80;;;6.10;;
4290;SDS011;2159;50.906;7.152;2023-06-24T03:10:06;6.47;;;5.90;;
4290;SDS011;2159;50.906;7.152;2023-06-24T03:12:34;6.70;;;6.00;;
4290;SDS011;2159;50.906;7.152;2023-06-24T03:15:02;7.57;;;6.87;;
4290;SDS011;2159;50.906;7.152;2023-06-24T03:17:31;8.57;;;6.37;;
4290;SDS011;2159;50.906;7.152;2023-06-24T03:19:58;7.13;;;6.43;;
4290;SDS011;2159;50.906;7.152;2023-06-24T03:22:26;7.53;;;6.30;;
4290;SDS011;2159;50.906;7.152;2023-06-24T03:24:53;8.27;;;6.03;;
4290;SDS011;2159;50.906;7.152;2023-06-24T03:27:22;6.87;;;6.20;;
4290;SDS011;2159;50.906;7.152;2023-06-24T03:29:49;7.47;;;6.63;;
4290;SDS011;2159;50.906;7.152;2023-06-24T03:32:17;7.07;;;6.37;;
4290;SDS011;2159;50.906;7.152;2023-06-24T03:34:46;6.27;;;5.70;;
4290;SDS011;2159;50.906;7.152;2023-06-24T03:37:13;9.10;;;6.07;;
4290;SDS011;2159;50.906;7.152;2023-06-24T03:39:42;7.57;;;6.10;;
4290;SDS011;2159;50.906;7.152;2023-06-24T03:42:09;7.60;;;5.77;;
4290;SDS011;2159;50.906;7.152;2023-06-24T03:44:37;7.17;;;5.60;;
4290;SDS011;2159;50.906;7.152;2023-06-24T03:47:08;6.73;;;6.13;;
4290;SDS011;2159;50.906;7.152;2023-06-24T03:49:35;6.90;;;6.20;;
4290;SDS011;2159;50.906;7.152;2023-06-24T03:52:06;6.40;;;5.60;;
4290;SDS011;2159;50.906;7.152;2023-06-24T03:54:35;9.23;;;5.97;;
4290;SDS011;2159;50.906;7.152;2023-06-24T03:57:03;6.43;;;5.83;;
4290;SDS011;2159;50.906;7.152;2023-06-24T03:59:32;7.80;;;6.20;;
4290;SDS011;2159;50.906;7.152;2023-06-24T04:02:00;8.13;;;5.90;;
4290;SDS011;2159;50.906;7.152;2023-06-24T04:04:27;6.90;;;6.27;;
4290;SDS011;2159;50.906;7.152;2023-06-24T04:06:55;6.80;;;6.20;;
4290;SDS011;2159;50.906;7.152;2023-06-24T04:09:24;7.40;;;6.40;;
4290;SDS011;2159;50.906;7.152;2023-06-24T04:11:52;7.27;;;6.20;;
4290;SDS011;2159;50.906;7.152;2023-06-24T04:14:19;8.97;;;6.00;;
4290;SDS011;2159;50.906;7.152;2023-06-24T04:16:47;6.70;;;6.10;;
4290;SDS011;2159;50.906;7.152;2023-06-24T04:19:14;6.40;;;5.80;;
4290;SDS011;2159;50.906;7.152;2023-06-24T04:21:42;6.27;;;5.67;;
4290;SDS011;2159;50.906;7.152;2023-06-24T04:24:10;7.53;;;5.80;;
4290;SDS011;2159;50.906;7.152;2023-06-24T04:26:39;9.30;;;5.80;;
4290;SDS011;2159;50.906;7.152;2023-06-24T04:29:06;7.13;;;5.07;;
4290;SDS011;2159;50.906;7.152;2023-06-24T04:31:33;6.03;;;5.53;;
4290;SDS011;2159;50.906;7.152;2023-06-24T04:34:01;7.40;;;5.60;;
4290;SDS011;2159;50.906;7.152;2023-06-24T04:36:28;7.77;;;5.97;;
4290;SDS011;2159;50.906;7.152;2023-06-24T04:38:56;8.33;;;5.70;;
4290;SDS011;2159;50.906;7.152;2023-06-24T04:41:23;6.47;;;5.87;;
4290;SDS011;2159;50.906;7.152;2023-06-24T04:43:53;7.07;;;6.20;;
4290;SDS011;2159;50.906;7.152;2023-06-24T04:46:21;7.77;;;6.80;;
4290;SDS011;2159;50.906;7.152;2023-06-24T04:48:48;7.33;;;6.47;;
4290;SDS011;2159;50.906;7.152;2023-06-24T04:51:16;7.20;;;5.87;;
4290;SDS011;2159;50.906;7.152;2023-06-24T04:53:43;8.70;;;5.80;;
4290;SDS011;2159;50.906;7.152;2023-06-24T04:56:10;6.93;;;6.23;;
4290;SDS011;2159;50.906;7.152;2023-06-24T04:58:38;6.20;;;5.70;;
4290;SDS011;2159;50.906;7.152;2023-06-24T05:01:07;13.70;;;7.00;;
4290;SDS011;2159;50.906;7.152;2023-06-24T05:03:34;7.80;;;6.77;;
4290;SDS011;2159;50.906;7.152;2023-06-24T05:06:02;10.47;;;7.00;;
4290;SDS011;2159;50.906;7.152;2023-06-24T05:08:29;6.73;;;6.03;;
4290;SDS011;2159;50.906;7.152;2023-06-24T05:10:57;6.90;;;6.20;;
4290;SDS011;2159;50.906;7.152;2023-06-24T05:13:25;9.57;;;6.70;;
4290;SDS011;2159;50.906;7.152;2023-06-24T05:15:52;7.30;;;6.60;;
4290;SDS011;2159;50.906;7.152;2023-06-24T05:18:21;10.60;;;7.00;;
4290;SDS011;2159;50.906;7.152;2023-06-24T05:20:49;7.70;;;6.80;;
4290;SDS011;2159;50.906;7.152;2023-06-24T05:23:16;8.47;;;6.60;;
4290;SDS011;2159;50.906;7.152;2023-06-24T05:25:44;9.50;;;6.50;;
4290;SDS011;2159;50.906;7.152;2023-06-24T05:28:11;7.20;;;6.50;;
4290;SDS011;2159;50.906;7.152;2023-06-24T05:30:40;8.60;;;6.93;;
4290;SDS011;2159;50.906;7.152;2023-06-24T05:33:08;7.73;;;6.17;;
4290;SDS011;2159;50.906;7.152;2023-06-24T05:35:37;7.63;;;5.83;;
4290;SDS011;2159;50.906;7.152;2023-06-24T05:38:07;6.40;;;5.80;;
4290;SDS011;2159;50.906;7.152;2023-06-24T05:40:34;7.93;;;5.90;;
4290;SDS011;2159;50.906;7.152;2023-06-24T05:43:02;6.30;;;5.57;;
4290;SDS011;2159;50.906;7.152;2023-06-24T05:45:29;6.73;;;6.10;;
4290;SDS011;2159;50.906;7.152;2023-06-24T05:47:56;7.00;;;6.30;;
4290;SDS011;2159;50.906;7.152;2023-06-24T05:50:24;7.10;;;6.40;;
4290;SDS011;2159;50.906;7.152;2023-06-24T05:52:53;7.97;;;6.87;;
4290;SDS011;2159;50.906;7.152;2023-06-24T05:55:20;9.63;;;6.47;;
4290;SDS011;2159;50.906;7.152;2023-06-24T05:57:48;7.53;;;6.30;;
4290;SDS011;2159;50.906;7.152;2023-06-24T06:00:17;7.53;;;6.37;;
4290;SDS011;2159;50.906;7.152;2023-06-24T06:02:44;8.23;;;6.50;;
4290;SDS011;2159;50.906;7.152;2023-06-24T06:05:12;10.13;;;6.30;;
4290;SDS011;2159;50.906;7.152;2023-06-24T06:07:40;7.80;;;6.90;;
4290;SDS011;2159;50.906;7.152;2023-06-24T06:10:09;7.43;;;6.30;;
4290;SDS011;2159;50.906;7.152;2023-06-24T06:12:37;6.63;;;6.03;;
4290;SDS011;2159;50.906;7.152;2023-06-24T06:15:04;8.10;;;6.47;;
4290;SDS011;2159;50.906;7.152;2023-06-24T06:17:32;7.10;;;6.43;;
4290;SDS011;2159;50.906;7.152;2023-06-24T06:20:00;9.40;;;6.40;;
4290;SDS011;2159;50.906;7.152;2023-06-24T06:22:28;7.23;;;6.53;;
4290;SDS011;2159;50.906;7.152;2023-06-24T06:24:55;8.10;;;6.40;;
4290;SDS011;2159;50.906;7.152;2023-06-24T06:27:24;7.50;;;6.60;;
4290;SDS011;2159;50.906;7.152;2023-06-24T06:29:51;9.80;;;6.50;;
4290;SDS011;2159;50.906;7.152;2023-06-24T06:32:19;8.93;;;6.70;;
4290;SDS011;2159;50.906;7.152;2023-06-24T06:34:47;10.17;;;6.07;;
4290;SDS011;2159;50.906;7.152;2023-06-24T06:37:14;7.30;;;6.60;;
4290;SDS011;2159;50.906;7.152;2023-06-24T06:39:42;10.50;;;7.40;;
4290;SDS011;2159;50.906;7.152;2023-06-24T06:42:09;7.87;;;7.07;;
4290;SDS011;2159;50.906;7.152;2023-06-24T06:44:38;7.20;;;6.50;;
4290;SDS011;2159;50.906;7.152;2023-06-24T06:47:06;7.73;;;6.80;;
4290;SDS011;2159;50.906;7.152;2023-06-24T06:49:33;7.60;;;6.87;;
4290;SDS011;2159;50.906;7.152;2023-06-24T06:52:01;7.10;;;6.40;;
4290;SDS011;2159;50.906;7.152;2023-06-24T06:54:28;7.97;;;6.50;;
4290;SDS011;2159;50.906;7.152;2023-06-24T06:56:59;13.30;;;8.73;;
4290;SDS011;2159;50.906;7.152;2023-06-24T06:59:27;9.10;;;7.70;;
4290;SDS011;2159;50.906;7.152;2023-06-24T07:01:55;8.23;;;6.60;;
4290;SDS011;2159;50.906;7.152;2023-06-24T07:04:23;8.70;;;7.80;;
4290;SDS011;2159;50.906;7.152;2023-06-24T07:06:50;10.03;;;7.83;;
4290;SDS011;2159;50.906;7.152;2023-06-24T07:09:18;10.10;;;7.50;;
4290;SDS011;2159;50.906;7.152;2023-06-24T07:11:45;12.53;;;8.20;;
4290;SDS011;2159;50.906;7.152;2023-06-24T07:14:13;10.37;;;8.50;;
4290;SDS011;2159;50.906;7.152;2023-06-24T07:16:40;17.20;;;8.83;;
4290;SDS011;2159;50.906;7.152;2023-06-24T07:19:09;10.80;;;8.00;;
4290;SDS011;2159;50.906;7.152;2023-06-24T07:21:37;13.37;;;9.10;;
4290;SDS011;2159;50.906;7.152;2023-06-24T07:24:05;15.60;;;8.17;;
4290;SDS011;2159;50.906;7.152;2023-06-24T07:26:32;9.90;;;8.03;;
4290;SDS011;2159;50.906;7.152;2023-06-24T07:28:59;10.60;;;8.30;;
4290;SDS011;2159;50.906;7.152;2023-06-24T07:31:34;11.20;;;8.57;;
4290;SDS011;2159;50.906;7.152;2023-06-24T07:34:02;10.20;;;8.47;;
4290;SDS011;2159;50.906;7.152;2023-06-24T07:36:31;11.30;;;10.03;;
4290;SDS011;2159;50.906;7.152;2023-06-24T07:38:58;11.63;;;8.40;;
4290;SDS011;2159;50.906;7.152;2023-06-24T07:41:26;10.82;;;8.40;;
4290;SDS011;2159;50.906;7.152;2023-06-24T07:43:53;12.43;;;9.50;;
4290;SDS011;2159;50.906;7.152;2023-06-24T07:46:21;10.73;;;9.17;;
4290;SDS011;2159;50.906;7.152;2023-06-24T07:48:48;9.70;;;8.70;;
4290;SDS011;2159;50.906;7.152;2023-06-24T07:51:16;12.93;;;9.97;;
4290;SDS011;2159;50.906;7.152;2023-06-24T07:53:45;14.97;;;8.97;;
4290;SDS011;2159;50.906;7.152;2023-06-24T07:56:13;15.00;;;9.70;;
4290;SDS011;2159;50.906;7.152;2023-06-24T07:58:40;11.13;;;8.97;;
4290;SDS011;2159;50.906;7.152;2023-06-24T08:01:08;10.57;;;8.97;;
4290;SDS011;2159;50.906;7.152;2023-06-24T08:03:35;12.20;;;8.97;;
4290;SDS011;2159;50.906;7.152;2023-06-24T08:06:04;11.43;;;8.80;;
4290;SDS011;2159;50.906;7.152;2023-06-24T08:08:31;13.70;;;9.40;;
4290;SDS011;2159;50.906;7.152;2023-06-24T08:11:00;13.70;;;9.87;;
4290;SDS011;2159;50.906;7.152;2023-06-24T08:13:27;9.70;;;8.57;;
4290;SDS011;2159;50.906;7.152;2023-06-24T08:15:55;12.60;;;8.67;;
4290;SDS011;2159;50.906;7.152;2023-06-24T08:18:22;12.43;;;8.97;;
4290;SDS011;2159;50.906;7.152;2023-06-24T08:20:49;11.60;;;8.47;;
4290;SDS011;2159;50.906;7.152;2023-06-24T08:23:17;11.10;;;9.90;;
4290;SDS011;2159;50.906;7.152;2023-06-24T08:25:44;13.17;;;10.20;;
4290;SDS011;2159;50.906;7.152;2023-06-24T08:28:13;11.17;;;8.50;;
4290;SDS011;2159;50.906;7.152;2023-06-24T08:30:41;12.07;;;9.20;;
4290;SDS011;2159;50.906;7.152;2023-06-24T08:33:09;10.87;;;8.90;;
4290;SDS011;2159;50.906;7.152;2023-06-24T08:35:36;10.80;;;9.40;;
4290;SDS011;2159;50.906;7.152;2023-06-24T08:38:04;10.97;;;7.60;;
4290;SDS011;2159;50.906;7.152;2023-06-24T08:40:31;11.90;;;8.57;;
4290;SDS011;2159;50.906;7.152;2023-06-24T08:42:58;9.40;;;8.33;;
4290;SDS011;2159;50.906;7.152;2023-06-24T08:45:27;10.50;;;7.90;;
4290;SDS011;2159;50.906;7.152;2023-06-24T08:47:56;8.53;;;6.60;;
4290;SDS011;2159;50.906;7.152;2023-06-24T08:50:24;9.73;;;7.83;;
4290;SDS011;2159;50.906;7.152;2023-06-24T08:52:54;10.50;;;7.17;;
4290;SDS011;2159;50.906;7.152;2023-06-24T08:55:22;9.43;;;7.43;;
4290;SDS011;2159;50.906;7.152;2023-06-24T08:57:50;7.20;;;6.50;;
4290;SDS011;2159;50.906;7.152;2023-06-24T09:00:20;10.30;;;7.43;;
4290;SDS011;2159;50.906;7.152;2023-06-24T09:02:49;11.60;;;7.50;;
4290;SDS011;2159;50.906;7.152;2023-06-24T09:05:17;11.83;;;7.80;;
4290;SDS011;2159;50.906;7.152;2023-06-24T09:07:45;8.93;;;7.77;;
4290;SDS011;2159;50.906;7.152;2023-06-24T09:10:17;6.73;;;5.70;;
4290;SDS011;2159;50.906;7.152;2023-06-24T09:12:55;7.40;;;6.60;;
4290;SDS011;2159;50.906;7.152;2023-06-24T09:15:23;7.50;;;6.63;;
4290;SDS011;2159;50.906;7.152;2023-06-24T09:17:51;9.43;;;6.77;;
4290;SDS011;2159;50.906;7.152;2023-06-24T09:20:19;7.53;;;6.73;;
4290;SDS011;2159;50.906;7.152;2023-06-24T09:22:49;8.37;;;7.50;;
4290;SDS011;2159;50.906;7.152;2023-06-24T09:25:17;12.50;;;6.93;;
4290;SDS011;2159;50.906;7.152;2023-06-24T09:27:48;7.67;;;6.87;;
4290;SDS011;2159;50.906;7.152;2023-06-24T09:30:19;11.43;;;8.30;;
4290;SDS011;2159;50.906;7.152;2023-06-24T09:32:47;10.07;;;7.70;;
4290;SDS011;2159;50.906;7.152;2023-06-24T09:35:16;9.93;;;6.90;;
4290;SDS011;2159;50.906;7.152;2023-06-24T09:37:48;10.07;;;6.80;;
4290;SDS011;2159;50.906;7.152;2023-06-24T09:40:16;7.00;;;6.20;;
4290;SDS011;2159;50.906;7.152;2023-06-24T09:42:50;9.07;;;7.17;;
4290;SDS011;2159;50.906;7.152;2023-06-24T09:45:22;14.90;;;7.23;;
4290;SDS011;2159;50.906;7.152;2023-06-24T09:47:49;8.77;;;7.57;;
4290;SDS011;2159;50.906;7.152;2023-06-24T09:50:18;9.90;;;7.50;;
4290;SDS011;2159;50.906;7.152;2023-06-24T09:52:46;7.67;;;6.90;;
4290;SDS011;2159;50.906;7.152;2023-06-24T09:55:17;10.03;;;6.50;;
4290;SDS011;2159;50.906;7.152;2023-06-24T09:57:45;7.07;;;6.00;;
4290;SDS011;2159;50.906;7.152;2023-06-24T10:00:14;6.90;;;6.20;;
4290;SDS011;2159;50.906;7.152;2023-06-24T10:02:43;6.77;;;5.43;;
4290;SDS011;2159;50.906;7.152;2023-06-24T10:05:11;7.83;;;5.27;;
4290;SDS011;2159;50.906;7.152;2023-06-24T10:07:40;8.37;;;7.00;;
4290;SDS011;2159;50.906;7.152;2023-06-24T10:10:08;8.83;;;5.80;;
4290;SDS011;2159;50.906;7.152;2023-06-24T10:12:36;6.43;;;5.73;;
4290;SDS011;2159;50.906;7.152;2023-06-24T10:15:05;6.27;;;5.33;;
4290;SDS011;2159;50.906;7.152;2023-06-24T10:17:32;8.30;;;4.90;;
4290;SDS011;2159;50.906;7.152;2023-06-24T10:20:03;6.50;;;4.93;;
4290;SDS011;2159;50.906;7.152;2023-06-24T10:22:30;6.30;;;5.30;;
4290;SDS011;2159;50.906;7.152;2023-06-24T10:25:00;6.37;;;5.47;;
4290;SDS011;2159;50.906;7.152;2023-06-24T10:27:28;8.20;;;5.57;;
4290;SDS011;2159;50.906;7.152;2023-06-24T10:30:02;6.40;;;5.10;;
4290;SDS011;2159;50.906;7.152;2023-06-24T10:32:39;7.20;;;5.10;;
4290;SDS011;2159;50.906;7.152;2023-06-24T10:35:06;7.00;;;5.10;;
4290;SDS011;2159;50.906;7.152;2023-06-24T10:37:34;7.50;;;5.00;;
4290;SDS011;2159;50.906;7.152;2023-06-24T10:40:03;11.77;;;4.70;;
4290;SDS011;2159;50.906;7.152;2023-06-24T10:42:32;5.47;;;4.50;;
4290;SDS011;2159;50.906;7.152;2023-06-24T10:45:12;6.67;;;4.47;;
4290;SDS011;2159;50.906;7.152;2023-06-24T10:47:41;6.10;;;4.43;;
4290;SDS011;2159;50.906;7.152;2023-06-24T10:50:10;6.20;;;4.17;;
4290;SDS011;2159;50.906;7.152;2023-06-24T10:52:38;4.43;;;4.03;;
4290;SDS011;2159;50.906;7.152;2023-06-24T10:55:07;6.30;;;4.70;;
4290;SDS011;2159;50.906;7.152;2023-06-24T10:57:36;6.50;;;4.20;;
4290;SDS011;2159;50.906;7.152;2023-06-24T11:00:03;4.17;;;3.80;;
4290;SDS011;2159;50.906;7.152;2023-06-24T11:02:34;4.93;;;4.07;;
4290;SDS011;2159;50.906;7.152;2023-06-24T11:05:03;6.17;;;4.70;;
4290;SDS011;2159;50.906;7.152;2023-06-24T11:07:33;4.70;;;4.30;;
4290;SDS011;2159;50.906;7.152;2023-06-24T11:10:02;4.73;;;4.33;;
4290;SDS011;2159;50.906;7.152;2023-06-24T11:12:31;4.30;;;3.90;;
4290;SDS011;2159;50.906;7.152;2023-06-24T11:15:01;8.33;;;4.40;;
4290;SDS011;2159;50.906;7.152;2023-06-24T11:17:29;5.10;;;3.63;;
4290;SDS011;2159;50.906;7.152;2023-06-24T11:19:57;4.30;;;3.80;;
4290;SDS011;2159;50.906;7.152;2023-06-24T11:22:25;6.70;;;3.90;;
4290;SDS011;2159;50.906;7.152;2023-06-24T11:24:53;4.17;;;3.77;;
4290;SDS011;2159;50.906;7.152;2023-06-24T11:27:24;4.70;;;3.70;;
4290;SDS011;2159;50.906;7.152;2023-06-24T11:29:54;5.60;;;3.97;;
4290;SDS011;2159;50.906;7.152;2023-06-24T11:32:24;4.93;;;4.13;;
4290;SDS011;2159;50.906;7.152;2023-06-24T11:34:51;4.20;;;3.80;;
4290;SDS011;2159;50.906;7.152;2023-06-24T11:37:19;4.17;;;3.87;;
4290;SDS011;2159;50.906;7.152;2023-06-24T11:39:59;3.60;;;3.30;;
4290;SDS011;2159;50.906;7.152;2023-06-24T11:42:27;6.33;;;4.60;;
4290;SDS011;2159;50.906;7.152;2023-06-24T11:45:00;4.13;;;3.33;;
4290;SDS011;2159;50.906;7.152;2023-06-24T11:47:30;3.67;;;3.37;;
4290;SDS011;2159;50.906;7.152;2023-06-24T11:49:58;5.03;;;3.73;;
4290;SDS011;2159;50.906;7.152;2023-06-24T11:52:32;4.97;;;3.47;;
4290;SDS011;2159;50.906;7.152;2023-06-24T11:55:00;4.03;;;3.63;;
4290;SDS011;2159;50.906;7.152;2023-06-24T12:00:13;4.17;;;3.80;;
4290;SDS011;2159;50.906;7.152;2023-06-24T12:02:41;4.13;;;3.30;;
4290;SDS011;2159;50.906;7.152;2023-06-24T12:05:08;4.50;;;3.93;;
4290;SDS011;2159;50.906;7.152;2023-06-24T12:07:36;4.50;;;4.10;;
4290;SDS011;2159;50.906;7.152;2023-06-24T12:10:04;5.20;;;3.83;;
4290;SDS011;2159;50.906;7.152;2023-06-24T12:12:34;5.50;;;3.80;;
4290;SDS011;2159;50.906;7.152;2023-06-24T12:15:01;3.90;;;3.50;;
4290;SDS011;2159;50.906;7.152;2023-06-24T12:17:30;4.40;;;3.47;;
4290;SDS011;2159;50.906;7.152;2023-06-24T12:19:58;3.77;;;3.47;;
4290;SDS011;2159;50.906;7.152;2023-06-24T12:22:25;3.80;;;3.47;;
4290;SDS011;2159;50.906;7.152;2023-06-24T12:24:53;3.30;;;3.10;;
4290;SDS011;2159;50.906;7.152;2023-06-24T12:27:21;3.50;;;3.13;;
4290;SDS011;2159;50.906;7.152;2023-06-24T12:29:48;4.43;;;3.60;;
4290;SDS011;2159;50.906;7.152;2023-06-24T12:32:16;4.50;;;3.63;;
4290;SDS011;2159;50.906;7.152;2023-06-24T12:34:45;3.77;;;3.33;;
4290;SDS011;2159;50.906;7.152;2023-06-24T12:37:12;3.73;;;3.37;;
4290;SDS011;2159;50.906;7.152;2023-06-24T12:39:40;3.63;;;3.40;;
4290;SDS011;2159;50.906;7.152;2023-06-24T12:42:07;3.60;;;3.30;;
4290;SDS011;2159;50.906;7.152;2023-06-24T12:44:35;5.77;;;3.53;;
4290;SDS011;2159;50.906;7.152;2023-06-24T12:47:03;3.80;;;3.30;;
4290;SDS011;2159;50.906;7.152;2023-06-24T12:49:32;4.30;;;3.90;;
4290;SDS011;2159;50.906;7.152;2023-06-24T12:52:01;7.60;;;3.50;;
4290;SDS011;2159;50.906;7.152;2023-06-24T12:54:29;3.83;;;3.53;;
4290;SDS011;2159;50.906;7.152;2023-06-24T12:56:56;3.70;;;3.40;;
4290;SDS011;2159;50.906;7.152;2023-06-24T12:59:39;3.60;;;3.30;;
4290;SDS011;2159;50.906;7.152;2023-06-24T13:02:06;3.97;;;3.60;;
4290;SDS011;2159;50.906;7.152;2023-06-24T13:04:34;3.70;;;3.40;;
4290;SDS011;2159;50.906;7.152;2023-06-24T13:07:03;4.40;;;4.10;;
4290;SDS011;2159;50.906;7.152;2023-06-24T13:09:31;5.47;;;4.10;;
4290;SDS011;2159;50.906;7.152;2023-06-24T13:11:59;8.90;;;3.70;;
4290;SDS011;2159;50.906;7.152;2023-06-24T13:14:26;3.30;;;3.10;;
4290;SDS011;2159;50.906;7.152;2023-06-24T13:16:54;3.60;;;3.30;;
4290;SDS011;2159;50.906;7.152;2023-06-24T13:19:22;4.00;;;3.70;;
4290;SDS011;2159;50.906;7.152;2023-06-24T13:21:49;5.10;;;4.27;;
4290;SDS011;2159;50.906;7.152;2023-06-24T13:24:18;4.77;;;3.97;;
4290;SDS011;2159;50.906;7.152;2023-06-24T13:26:46;5.93;;;4.63;;
4290;SDS011;2159;50.906;7.152;2023-06-24T13:29:13;4.73;;;4.27;;
4290;SDS011;2159;50.906;7.152;2023-06-24T13:31:40;4.23;;;3.83;;
4290;SDS011;2159;50.906;7.152;2023-06-24T13:34:08;4.47;;;3.70;;
4290;SDS011;2159;50.906;7.152;2023-06-24T13:36:36;4.53;;;4.00;;
4290;SDS011;2159;50.906;7.152;2023-06-24T13:39:04;6.20;;;3.90;;
4290;SDS011;2159;50.906;7.152;2023-06-24T13:41:35;8.73;;;4.20;;
4290;SDS011;2159;50.906;7.152;2023-06-24T13:44:03;4.07;;;3.67;;
4290;SDS011;2159;50.906;7.152;2023-06-24T13:46:34;4.30;;;3.90;;
4290;SDS011;2159;50.906;7.152;2023-06-24T13:49:02;4.20;;;3.90;;
4290;SDS011;2159;50.906;7.152;2023-06-24T13:51:31;5.03;;;4.17;;
4290;SDS011;2159;50.906;7.152;2023-06-24T13:53:59;5.00;;;4.10;;
4290;SDS011;2159;50.906;7.152;2023-06-24T13:56:27;4.03;;;3.70;;
4290;SDS011;2159;50.906;7.152;2023-06-24T13:58:56;3.70;;;3.40;;
4290;SDS011;2159;50.906;7.152;2023-06-24T14:01:23;4.07;;;3.50;;
4290;SDS011;2159;50.906;7.152;2023-06-24T14:03:51;4.13;;;3.83;;
4290;SDS011;2159;50.906;7.152;2023-06-24T14:06:19;3.80;;;3.50;;
4290;SDS011;2159;50.906;7.152;2023-06-24T14:08:47;4.37;;;3.50;;
4290;SDS011;2159;50.906;7.152;2023-06-24T14:11:15;5.97;;;3.37;;
4290;SDS011;2159;50.906;7.152;2023-06-24T14:13:43;3.70;;;3.40;;
4290;SDS011;2159;50.906;7.152;2023-06-24T14:16:12;4.70;;;3.60;;
4290;SDS011;2159;50.906;7.152;2023-06-24T14:18:39;4.17;;;3.70;;
4290;SDS011;2159;50.906;7.152;2023-06-24T14:21:07;3.77;;;3.50;;
4290;SDS011;2159;50.906;7.152;2023-06-24T14:23:35;3.67;;;3.40;;
4290;SDS011;2159;50.906;7.152;2023-06-24T14:26:02;4.00;;;3.70;;
4290;SDS011;2159;50.906;7.152;2023-06-24T14:28:33;5.27;;;3.90;;
4290;SDS011;2159;50.906;7.152;2023-06-24T14:31:00;3.97;;;3.57;;
4290;SDS011;2159;50.906;7.152;2023-06-24T14:33:29;5.10;;;4.10;;
4290;SDS011;2159;50.906;7.152;2023-06-24T14:35:57;4.63;;;3.70;;
4290;SDS011;2159;50.906;7.152;2023-06-24T14:38:24;4.63;;;3.63;;
4290;SDS011;2159;50.906;7.152;2023-06-24T14:40:54;6.73;;;3.70;;
4290;SDS011;2159;50.906;7.152;2023-06-24T14:43:23;3.97;;;3.67;;
4290;SDS011;2159;50.906;7.152;2023-06-24T14:45:50;4.30;;;3.37;;
4290;SDS011;2159;50.906;7.152;2023-06-24T14:48:18;4.40;;;3.33;;
4290;SDS011;2159;50.906;7.152;2023-06-24T14:50:47;7.50;;;3.70;;
4290;SDS011;2159;50.906;7.152;2023-06-24T14:53:14;4.07;;;3.77;;
4290;SDS011;2159;50.906;7.152;2023-06-24T14:55:42;3.87;;;3.20;;
4290;SDS011;2159;50.906;7.152;2023-06-24T14:58:09;3.83;;;3.10;;
4290;SDS011;2159;50.906;7.152;2023-06-24T15:00:37;4.43;;;3.67;;
4290;SDS011;2159;50.906;7.152;2023-06-24T15:03:05;4.50;;;3.60;;
4290;SDS011;2159;50.906;7.152;2023-06-24T15:05:36;6.63;;;3.80;;
4290;SDS011;2159;50.906;7.152;2023-06-24T15:08:10;3.93;;;3.63;;
4290;SDS011;2159;50.906;7.152;2023-06-24T15:10:37;7.37;;;3.60;;
4290;SDS011;2159;50.906;7.152;2023-06-24T15:13:04;4.20;;;3.80;;
4290;SDS011;2159;50.906;7.152;2023-06-24T15:15:32;4.20;;;3.77;;
4290;SDS011;2159;50.906;7.152;2023-06-24T15:18:00;3.57;;;3.27;;
4290;SDS011;2159;50.906;7.152;2023-06-24T15:20:28;4.00;;;3.63;;
4290;SDS011;2159;50.906;7.152;2023-06-24T15:22:55;3.60;;;3.30;;